sensor_id;sensor_type;location;lat;lon;timestamp;P1;durP1;ratioP1;P2;durP2;ratioP2
24787;SDS011;12883;52.662;5.196;2023-08-17T00:02:21;3.05;;;3.05;;
24787;SDS011;12883;52.662;5.196;2023-08-17T00:04:47;2.75;;;2.75;;
24787;SDS011;12883;52.662;5.196;2023-08-17T00:07:12;2.20;;;2.20;;
24787;SDS011;12883;52.662;5.196;2023-08-17T00:09:38;2.35;;;2.35;;
24787;SDS011;12883;52.662;5.196;2023-08-17T00:12:04;2.65;;;2.65;;
24787;SDS011;12883;52.662;5.196;2023-08-17T00:14:29;2.30;;;2.30;;
24787;SDS011;12883;52.662;5.196;2023-08-17T00:16:55;2.53;;;2.53;;
24787;SDS011;12883;52.662;5.196;2023-08-17T00:19:21;2.60;;;2.60;;
24787;SDS011;12883;52.662;5.196;2023-08-17T00:21:46;2.53;;;2.53;;
24787;SDS011;12883;52.662;5.196;2023-08-17T00:24:11;2.30;;;2.30;;
24787;SDS011;12883;52.662;5.196;2023-08-17T00:26:37;2.33;;;2.33;;
24787;SDS011;12883;52.662;5.196;2023-08-17T00:29:02;2.30;;;2.30;;
24787;SDS011;12883;52.662;5.196;2023-08-17T00:31:28;2.47;;;2.47;;
24787;SDS011;12883;52.662;5.196;2023-08-17T00:33:54;2.42;;;2.42;;
24787;SDS011;12883;52.662;5.196;2023-08-17T00:36:19;2.58;;;2.58;;
24787;SDS011;12883;52.662;5.196;2023-08-17T00:38:44;2.08;;;2.08;;
24787;SDS011;12883;52.662;5.196;2023-08-17T00:41:10;2.30;;;2.30;;
24787;SDS011;12883;52.662;5.196;2023-08-17T00:43:35;2.13;;;2.13;;
24787;SDS011;12883;52.662;5.196;2023-08-17T00:46:00;2.38;;;2.38;;
24787;SDS011;12883;52.662;5.196;2023-08-17T00:48:26;2.10;;;2.10;;
24787;SDS011;12883;52.662;5.196;2023-08-17T00:50:54;2.47;;;2.47;;
24787;SDS011;12883;52.662;5.196;2023-08-17T00:53:22;1.95;;;1.95;;
24787;SDS011;12883;52.662;5.196;2023-08-17T00:55:48;2.15;;;2.15;;
24787;SDS011;12883;52.662;5.196;2023-08-17T00:58:14;2.28;;;2.28;;
24787;SDS011;12883;52.662;5.196;2023-08-17T01:00:40;2.65;;;2.65;;
24787;SDS011;12883;52.662;5.196;2023-08-17T01:03:05;2.42;;;2.42;;
24787;SDS011;12883;52.662;5.196;2023-08-17T01:05:31;2.10;;;2.10;;
24787;SDS011;12883;52.662;5.196;2023-08-17T01:07:58;2.58;;;2.58;;
24787;SDS011;12883;52.662;5.196;2023-08-17T01:10:23;2.80;;;2.80;;
24787;SDS011;12883;52.662;5.196;2023-08-17T01:12:59;2.65;;;2.65;;
24787;SDS011;12883;52.662;5.196;2023-08-17T01:18:21;2.40;;;2.40;;
24787;SDS011;12883;52.662;5.196;2023-08-17T01:20:49;2.47;;;2.47;;
24787;SDS011;12883;52.662;5.196;2023-08-17T01:23:15;2.90;;;2.90;;
24787;SDS011;12883;52.662;5.196;2023-08-17T01:25:40;2.65;;;2.65;;
24787;SDS011;12883;52.662;5.196;2023-08-17T01:28:06;2.55;;;2.55;;
24787;SDS011;12883;52.662;5.196;2023-08-17T01:30:47;2.50;;;2.50;;
24787;SDS011;12883;52.662;5.196;2023-08-17T01:33:40;2.25;;;2.25;;
24787;SDS011;12883;52.662;5.196;2023-08-17T01:39:06;3.33;;;3.33;;
24787;SDS011;12883;52.662;5.196;2023-08-17T01:41:33;2.42;;;2.42;;
24787;SDS011;12883;52.662;5.196;2023-08-17T01:43:59;2.50;;;2.50;;
24787;SDS011;12883;52.662;5.196;2023-08-17T01:46:29;2.55;;;2.55;;
24787;SDS011;12883;52.662;5.196;2023-08-17T01:48:56;2.53;;;2.53;;
24787;SDS011;12883;52.662;5.196;2023-08-17T01:51:21;2.85;;;2.85;;
24787;SDS011;12883;52.662;5.196;2023-08-17T01:53:47;2.72;;;2.72;;
24787;SDS011;12883;52.662;5.196;2023-08-17T01:56:12;2.55;;;2.55;;
24787;SDS011;12883;52.662;5.196;2023-08-17T01:58:38;2.33;;;2.33;;
24787;SDS011;12883;52.662;5.196;2023-08-17T02:01:03;2.13;;;2.13;;
24787;SDS011;12883;52.662;5.196;2023-08-17T02:03:29;2.13;;;2.13;;
24787;SDS011;12883;52.662;5.196;2023-08-17T02:05:58;2.30;;;2.30;;
24787;SDS011;12883;52.662;5.196;2023-08-17T02:08:24;1.95;;;1.95;;
24787;SDS011;12883;52.662;5.196;2023-08-17T02:10:49;2.65;;;2.65;;
24787;SDS011;12883;52.662;5.196;2023-08-17T02:13:15;2.00;;;2.00;;
24787;SDS011;12883;52.662;5.196;2023-08-17T02:15:41;2.58;;;2.58;;
24787;SDS011;12883;52.662;5.196;2023-08-17T02:18:06;2.22;;;2.22;;
24787;SDS011;12883;52.662;5.196;2023-08-17T02:20:32;2.25;;;2.25;;
24787;SDS011;12883;52.662;5.196;2023-08-17T02:22:57;2.72;;;2.72;;
24787;SDS011;12883;52.662;5.196;2023-08-17T02:25:23;3.10;;;3.10;;
24787;SDS011;12883;52.662;5.196;2023-08-17T02:27:48;3.03;;;3.03;;
24787;SDS011;12883;52.662;5.196;2023-08-17T02:30:13;2.58;;;2.58;;
24787;SDS011;12883;52.662;5.196;2023-08-17T02:32:39;2.63;;;2.63;;
24787;SDS011;12883;52.662;5.196;2023-08-17T02:35:04;2.95;;;2.95;;
24787;SDS011;12883;52.662;5.196;2023-08-17T02:37:30;3.05;;;3.05;;
24787;SDS011;12883;52.662;5.196;2023-08-17T02:39:56;2.75;;;2.75;;
24787;SDS011;12883;52.662;5.196;2023-08-17T02:42:21;2.67;;;2.67;;
24787;SDS011;12883;52.662;5.196;2023-08-17T02:44:47;2.88;;;2.88;;
24787;SDS011;12883;52.662;5.196;2023-08-17T02:47:12;3.03;;;3.03;;
24787;SDS011;12883;52.662;5.196;2023-08-17T02:49:38;2.95;;;2.95;;
24787;SDS011;12883;52.662;5.196;2023-08-17T02:52:03;2.63;;;2.63;;
24787;SDS011;12883;52.662;5.196;2023-08-17T02:54:28;3.03;;;3.03;;
24787;SDS011;12883;52.662;5.196;2023-08-17T02:56:54;3.40;;;3.40;;
24787;SDS011;12883;52.662;5.196;2023-08-17T02:59:19;3.17;;;3.17;;
24787;SDS011;12883;52.662;5.196;2023-08-17T03:01:45;3.40;;;3.40;;
24787;SDS011;12883;52.662;5.196;2023-08-17T03:04:10;2.72;;;2.72;;
24787;SDS011;12883;52.662;5.196;2023-08-17T03:06:36;3.28;;;3.28;;
24787;SDS011;12883;52.662;5.196;2023-08-17T03:09:01;2.85;;;2.85;;
24787;SDS011;12883;52.662;5.196;2023-08-17T03:11:27;3.05;;;3.05;;
24787;SDS011;12883;52.662;5.196;2023-08-17T03:13:52;3.05;;;3.05;;
24787;SDS011;12883;52.662;5.196;2023-08-17T03:16:20;3.60;;;3.60;;
24787;SDS011;12883;52.662;5.196;2023-08-17T03:18:45;3.58;;;3.58;;
24787;SDS011;12883;52.662;5.196;2023-08-17T03:21:10;3.95;;;3.95;;
24787;SDS011;12883;52.662;5.196;2023-08-17T03:23:36;3.60;;;3.60;;
24787;SDS011;12883;52.662;5.196;2023-08-17T03:26:01;3.60;;;3.60;;
24787;SDS011;12883;52.662;5.196;2023-08-17T03:28:27;3.35;;;3.35;;
24787;SDS011;12883;52.662;5.196;2023-08-17T03:30:55;4.20;;;4.20;;
24787;SDS011;12883;52.662;5.196;2023-08-17T03:33:21;3.75;;;3.75;;
24787;SDS011;12883;52.662;5.196;2023-08-17T03:35:46;3.40;;;3.40;;
24787;SDS011;12883;52.662;5.196;2023-08-17T03:38:12;4.47;;;4.47;;
24787;SDS011;12883;52.662;5.196;2023-08-17T03:40:37;3.97;;;3.97;;
24787;SDS011;12883;52.662;5.196;2023-08-17T03:43:03;3.97;;;3.97;;
24787;SDS011;12883;52.662;5.196;2023-08-17T03:45:28;3.92;;;3.92;;
24787;SDS011;12883;52.662;5.196;2023-08-17T03:47:55;3.35;;;3.35;;
24787;SDS011;12883;52.662;5.196;2023-08-17T03:50:20;3.22;;;3.22;;
24787;SDS011;12883;52.662;5.196;2023-08-17T03:52:46;3.13;;;3.13;;
24787;SDS011;12883;52.662;5.196;2023-08-17T03:55:11;2.88;;;2.88;;
24787;SDS011;12883;52.662;5.196;2023-08-17T03:57:36;3.10;;;3.10;;
24787;SDS011;12883;52.662;5.196;2023-08-17T04:00:02;3.13;;;3.13;;
24787;SDS011;12883;52.662;5.196;2023-08-17T04:02:28;2.63;;;2.63;;
24787;SDS011;12883;52.662;5.196;2023-08-17T04:04:53;2.58;;;2.58;;
24787;SDS011;12883;52.662;5.196;2023-08-17T04:07:22;3.05;;;3.05;;
24787;SDS011;12883;52.662;5.196;2023-08-17T04:09:47;2.60;;;2.60;;
24787;SDS011;12883;52.662;5.196;2023-08-17T04:12:13;2.83;;;2.83;;
24787;SDS011;12883;52.662;5.196;2023-08-17T04:14:38;3.60;;;3.60;;
24787;SDS011;12883;52.662;5.196;2023-08-17T04:17:03;2.63;;;2.63;;
24787;SDS011;12883;52.662;5.196;2023-08-17T04:19:29;3.08;;;3.08;;
24787;SDS011;12883;52.662;5.196;2023-08-17T04:21:54;3.03;;;3.03;;
24787;SDS011;12883;52.662;5.196;2023-08-17T04:24:19;2.80;;;2.80;;
24787;SDS011;12883;52.662;5.196;2023-08-17T04:26:45;2.70;;;2.70;;
24787;SDS011;12883;52.662;5.196;2023-08-17T04:29:10;3.05;;;3.05;;
24787;SDS011;12883;52.662;5.196;2023-08-17T04:31:35;2.67;;;2.67;;
24787;SDS011;12883;52.662;5.196;2023-08-17T04:34:01;2.90;;;2.90;;
24787;SDS011;12883;52.662;5.196;2023-08-17T04:36:26;3.03;;;3.03;;
24787;SDS011;12883;52.662;5.196;2023-08-17T04:38:51;3.30;;;3.30;;
24787;SDS011;12883;52.662;5.196;2023-08-17T04:41:17;2.70;;;2.70;;
24787;SDS011;12883;52.662;5.196;2023-08-17T04:43:42;2.70;;;2.70;;
24787;SDS011;12883;52.662;5.196;2023-08-17T04:46:08;3.08;;;3.08;;
24787;SDS011;12883;52.662;5.196;2023-08-17T04:48:33;2.85;;;2.85;;
24787;SDS011;12883;52.662;5.196;2023-08-17T04:50:58;2.60;;;2.60;;
24787;SDS011;12883;52.662;5.196;2023-08-17T04:53:24;2.72;;;2.72;;
24787;SDS011;12883;52.662;5.196;2023-08-17T04:55:49;2.78;;;2.78;;
24787;SDS011;12883;52.662;5.196;2023-08-17T04:58:14;2.83;;;2.83;;
24787;SDS011;12883;52.662;5.196;2023-08-17T05:00:40;2.70;;;2.70;;
24787;SDS011;12883;52.662;5.196;2023-08-17T05:03:06;2.40;;;2.40;;
24787;SDS011;12883;52.662;5.196;2023-08-17T05:05:31;2.88;;;2.88;;
24787;SDS011;12883;52.662;5.196;2023-08-17T05:07:57;2.38;;;2.38;;
24787;SDS011;12883;52.662;5.196;2023-08-17T05:10:22;2.72;;;2.72;;
24787;SDS011;12883;52.662;5.196;2023-08-17T05:12:48;2.85;;;2.85;;
24787;SDS011;12883;52.662;5.196;2023-08-17T05:15:13;2.97;;;2.97;;
24787;SDS011;12883;52.662;5.196;2023-08-17T05:17:39;3.15;;;3.15;;
24787;SDS011;12883;52.662;5.196;2023-08-17T05:20:04;2.88;;;2.88;;
24787;SDS011;12883;52.662;5.196;2023-08-17T05:22:30;2.47;;;2.47;;
24787;SDS011;12883;52.662;5.196;2023-08-17T05:24:55;3.20;;;3.20;;
24787;SDS011;12883;52.662;5.196;2023-08-17T05:27:21;2.53;;;2.53;;
24787;SDS011;12883;52.662;5.196;2023-08-17T05:29:46;3.03;;;3.03;;
24787;SDS011;12883;52.662;5.196;2023-08-17T05:32:11;3.10;;;3.10;;
24787;SDS011;12883;52.662;5.196;2023-08-17T05:34:37;2.42;;;2.42;;
24787;SDS011;12883;52.662;5.196;2023-08-17T05:37:02;2.47;;;2.47;;
24787;SDS011;12883;52.662;5.196;2023-08-17T05:39:28;2.97;;;2.97;;
24787;SDS011;12883;52.662;5.196;2023-08-17T05:41:53;2.72;;;2.72;;
24787;SDS011;12883;52.662;5.196;2023-08-17T05:44:18;2.70;;;2.70;;
24787;SDS011;12883;52.662;5.196;2023-08-17T05:46:44;2.40;;;2.40;;
24787;SDS011;12883;52.662;5.196;2023-08-17T05:49:09;2.60;;;2.60;;
24787;SDS011;12883;52.662;5.196;2023-08-17T05:51:34;3.13;;;3.13;;
24787;SDS011;12883;52.662;5.196;2023-08-17T05:54:00;2.75;;;2.75;;
24787;SDS011;12883;52.662;5.196;2023-08-17T05:56:25;2.97;;;2.97;;
24787;SDS011;12883;52.662;5.196;2023-08-17T05:58:50;2.70;;;2.70;;
24787;SDS011;12883;52.662;5.196;2023-08-17T06:01:16;2.20;;;2.20;;
24787;SDS011;12883;52.662;5.196;2023-08-17T06:03:41;2.17;;;2.17;;
24787;SDS011;12883;52.662;5.196;2023-08-17T06:06:07;2.55;;;2.55;;
24787;SDS011;12883;52.662;5.196;2023-08-17T06:08:32;1.80;;;1.80;;
24787;SDS011;12883;52.662;5.196;2023-08-17T06:10:58;2.47;;;2.47;;
24787;SDS011;12883;52.662;5.196;2023-08-17T06:13:24;1.80;;;1.80;;
24787;SDS011;12883;52.662;5.196;2023-08-17T06:15:49;2.42;;;2.42;;
24787;SDS011;12883;52.662;5.196;2023-08-17T06:18:15;2.70;;;2.70;;
24787;SDS011;12883;52.662;5.196;2023-08-17T06:20:40;2.47;;;2.47;;
24787;SDS011;12883;52.662;5.196;2023-08-17T06:23:05;2.40;;;2.40;;
24787;SDS011;12883;52.662;5.196;2023-08-17T06:25:31;2.05;;;2.05;;
24787;SDS011;12883;52.662;5.196;2023-08-17T06:27:56;2.80;;;2.80;;
24787;SDS011;12883;52.662;5.196;2023-08-17T06:30:21;2.17;;;2.17;;
24787;SDS011;12883;52.662;5.196;2023-08-17T06:32:47;2.40;;;2.40;;
24787;SDS011;12883;52.662;5.196;2023-08-17T06:35:12;2.33;;;2.33;;
24787;SDS011;12883;52.662;5.196;2023-08-17T06:37:38;2.20;;;2.20;;
24787;SDS011;12883;52.662;5.196;2023-08-17T06:40:03;2.00;;;2.00;;
24787;SDS011;12883;52.662;5.196;2023-08-17T06:42:30;2.35;;;2.35;;
24787;SDS011;12883;52.662;5.196;2023-08-17T06:44:56;2.10;;;2.10;;
24787;SDS011;12883;52.662;5.196;2023-08-17T06:47:21;2.15;;;2.15;;
24787;SDS011;12883;52.662;5.196;2023-08-17T06:49:47;2.40;;;2.40;;
24787;SDS011;12883;52.662;5.196;2023-08-17T06:52:12;2.03;;;2.03;;
24787;SDS011;12883;52.662;5.196;2023-08-17T06:54:37;2.45;;;2.45;;
24787;SDS011;12883;52.662;5.196;2023-08-17T06:57:03;2.65;;;2.65;;
24787;SDS011;12883;52.662;5.196;2023-08-17T06:59:29;1.77;;;1.77;;
24787;SDS011;12883;52.662;5.196;2023-08-17T07:01:54;1.80;;;1.80;;
24787;SDS011;12883;52.662;5.196;2023-08-17T07:04:19;1.80;;;1.80;;
24787;SDS011;12883;52.662;5.196;2023-08-17T07:06:45;2.10;;;2.10;;
24787;SDS011;12883;52.662;5.196;2023-08-17T07:09:10;2.25;;;2.25;;
24787;SDS011;12883;52.662;5.196;2023-08-17T07:11:37;2.15;;;2.15;;
24787;SDS011;12883;52.662;5.196;2023-08-17T07:14:03;2.10;;;2.10;;
24787;SDS011;12883;52.662;5.196;2023-08-17T07:16:28;2.20;;;2.20;;
24787;SDS011;12883;52.662;5.196;2023-08-17T07:18:54;1.70;;;1.70;;
24787;SDS011;12883;52.662;5.196;2023-08-17T07:21:19;2.65;;;2.65;;
24787;SDS011;12883;52.662;5.196;2023-08-17T07:23:45;2.05;;;2.05;;
24787;SDS011;12883;52.662;5.196;2023-08-17T07:26:11;2.08;;;2.08;;
24787;SDS011;12883;52.662;5.196;2023-08-17T07:28:36;1.65;;;1.65;;
24787;SDS011;12883;52.662;5.196;2023-08-17T07:31:02;2.17;;;2.17;;
24787;SDS011;12883;52.662;5.196;2023-08-17T07:33:27;1.70;;;1.70;;
24787;SDS011;12883;52.662;5.196;2023-08-17T07:35:52;2.00;;;2.00;;
24787;SDS011;12883;52.662;5.196;2023-08-17T07:38:19;1.50;;;1.50;;
24787;SDS011;12883;52.662;5.196;2023-08-17T07:40:44;1.67;;;1.67;;
24787;SDS011;12883;52.662;5.196;2023-08-17T07:43:10;2.03;;;2.03;;
24787;SDS011;12883;52.662;5.196;2023-08-17T07:45:35;1.73;;;1.73;;
24787;SDS011;12883;52.662;5.196;2023-08-17T07:48:00;1.80;;;1.80;;
24787;SDS011;12883;52.662;5.196;2023-08-17T07:50:26;1.80;;;1.80;;
24787;SDS011;12883;52.662;5.196;2023-08-17T07:52:51;2.33;;;2.33;;
24787;SDS011;12883;52.662;5.196;2023-08-17T07:55:16;1.75;;;1.75;;
24787;SDS011;12883;52.662;5.196;2023-08-17T07:57:42;1.73;;;1.73;;
24787;SDS011;12883;52.662;5.196;2023-08-17T08:00:07;1.85;;;1.85;;
24787;SDS011;12883;52.662;5.196;2023-08-17T08:02:33;1.73;;;1.73;;
24787;SDS011;12883;52.662;5.196;2023-08-17T08:04:58;1.95;;;1.95;;
24787;SDS011;12883;52.662;5.196;2023-08-17T08:07:23;1.63;;;1.63;;
24787;SDS011;12883;52.662;5.196;2023-08-17T08:09:49;1.77;;;1.77;;
24787;SDS011;12883;52.662;5.196;2023-08-17T08:12:14;1.88;;;1.88;;
24787;SDS011;12883;52.662;5.196;2023-08-17T08:14:39;1.63;;;1.63;;
24787;SDS011;12883;52.662;5.196;2023-08-17T08:17:05;1.70;;;1.70;;
24787;SDS011;12883;52.662;5.196;2023-08-17T08:19:30;2.00;;;2.00;;
24787;SDS011;12883;52.662;5.196;2023-08-17T08:21:57;1.73;;;1.73;;
24787;SDS011;12883;52.662;5.196;2023-08-17T08:24:23;1.70;;;1.70;;
24787;SDS011;12883;52.662;5.196;2023-08-17T08:26:48;2.00;;;2.00;;
24787;SDS011;12883;52.662;5.196;2023-08-17T08:29:13;2.00;;;2.00;;
24787;SDS011;12883;52.662;5.196;2023-08-17T08:31:39;2.67;;;2.67;;
24787;SDS011;12883;52.662;5.196;2023-08-17T08:34:04;2.13;;;2.13;;
24787;SDS011;12883;52.662;5.196;2023-08-17T08:36:29;2.15;;;2.15;;
24787;SDS011;12883;52.662;5.196;2023-08-17T08:38:55;2.47;;;2.47;;
24787;SDS011;12883;52.662;5.196;2023-08-17T08:41:20;2.10;;;2.10;;
24787;SDS011;12883;52.662;5.196;2023-08-17T08:43:47;2.13;;;2.13;;
24787;SDS011;12883;52.662;5.196;2023-08-17T08:46:12;2.60;;;2.60;;
24787;SDS011;12883;52.662;5.196;2023-08-17T08:48:39;2.53;;;2.53;;
24787;SDS011;12883;52.662;5.196;2023-08-17T08:51:07;2.63;;;2.63;;
24787;SDS011;12883;52.662;5.196;2023-08-17T08:53:38;2.50;;;2.50;;
24787;SDS011;12883;52.662;5.196;2023-08-17T08:56:10;2.35;;;2.35;;
24787;SDS011;12883;52.662;5.196;2023-08-17T08:58:40;2.03;;;2.03;;
24787;SDS011;12883;52.662;5.196;2023-08-17T09:01:07;2.75;;;2.75;;
24787;SDS011;12883;52.662;5.196;2023-08-17T09:03:33;1.92;;;1.92;;
24787;SDS011;12883;52.662;5.196;2023-08-17T09:05:59;2.33;;;2.33;;
24787;SDS011;12883;52.662;5.196;2023-08-17T09:08:28;3.17;;;3.17;;
24787;SDS011;12883;52.662;5.196;2023-08-17T09:10:55;2.78;;;2.78;;
24787;SDS011;12883;52.662;5.196;2023-08-17T09:13:20;2.10;;;2.10;;
24787;SDS011;12883;52.662;5.196;2023-08-17T09:15:46;2.22;;;2.22;;
24787;SDS011;12883;52.662;5.196;2023-08-17T09:18:11;2.30;;;2.30;;
24787;SDS011;12883;52.662;5.196;2023-08-17T09:20:37;2.60;;;2.60;;
24787;SDS011;12883;52.662;5.196;2023-08-17T09:23:12;2.65;;;2.65;;
24787;SDS011;12883;52.662;5.196;2023-08-17T09:25:39;2.50;;;2.50;;
24787;SDS011;12883;52.662;5.196;2023-08-17T09:28:06;2.38;;;2.38;;
24787;SDS011;12883;52.662;5.196;2023-08-17T09:30:34;3.13;;;3.13;;
24787;SDS011;12883;52.662;5.196;2023-08-17T09:33:28;1.95;;;1.95;;
24787;SDS011;12883;52.662;5.196;2023-08-17T09:35:57;2.15;;;2.15;;
24787;SDS011;12883;52.662;5.196;2023-08-17T09:38:23;2.25;;;2.25;;
24787;SDS011;12883;52.662;5.196;2023-08-17T09:40:49;2.42;;;2.42;;
24787;SDS011;12883;52.662;5.196;2023-08-17T09:43:15;2.33;;;2.33;;
24787;SDS011;12883;52.662;5.196;2023-08-17T09:45:45;2.78;;;2.78;;
24787;SDS011;12883;52.662;5.196;2023-08-17T09:48:14;2.03;;;2.03;;
24787;SDS011;12883;52.662;5.196;2023-08-17T09:50:40;1.80;;;1.80;;
24787;SDS011;12883;52.662;5.196;2023-08-17T09:53:07;2.08;;;2.08;;
24787;SDS011;12883;52.662;5.196;2023-08-17T09:55:37;2.30;;;2.30;;
24787;SDS011;12883;52.662;5.196;2023-08-17T09:58:05;2.08;;;2.08;;
24787;SDS011;12883;52.662;5.196;2023-08-17T10:00:31;2.80;;;2.80;;
24787;SDS011;12883;52.662;5.196;2023-08-17T10:02:58;1.90;;;1.90;;
24787;SDS011;12883;52.662;5.196;2023-08-17T10:05:28;2.42;;;2.42;;
24787;SDS011;12883;52.662;5.196;2023-08-17T10:08:00;2.08;;;2.08;;
24787;SDS011;12883;52.662;5.196;2023-08-17T10:10:29;1.80;;;1.80;;
24787;SDS011;12883;52.662;5.196;2023-08-17T10:15:43;2.00;;;2.00;;
24787;SDS011;12883;52.662;5.196;2023-08-17T10:18:26;2.33;;;2.33;;
24787;SDS011;12883;52.662;5.196;2023-08-17T10:21:07;2.08;;;2.08;;
24787;SDS011;12883;52.662;5.196;2023-08-17T10:23:47;2.55;;;2.55;;
24787;SDS011;12883;52.662;5.196;2023-08-17T10:26:13;2.50;;;2.50;;
24787;SDS011;12883;52.662;5.196;2023-08-17T10:28:39;2.15;;;2.15;;
24787;SDS011;12883;52.662;5.196;2023-08-17T10:31:06;2.80;;;2.80;;
24787;SDS011;12883;52.662;5.196;2023-08-17T10:33:32;2.13;;;2.13;;
24787;SDS011;12883;52.662;5.196;2023-08-17T10:35:59;2.05;;;2.05;;
24787;SDS011;12883;52.662;5.196;2023-08-17T10:38:25;3.17;;;3.17;;
24787;SDS011;12883;52.662;5.196;2023-08-17T10:41:13;2.75;;;2.75;;
24787;SDS011;12883;52.662;5.196;2023-08-17T10:43:52;2.40;;;2.40;;
24787;SDS011;12883;52.662;5.196;2023-08-17T10:46:21;2.33;;;2.33;;
24787;SDS011;12883;52.662;5.196;2023-08-17T10:49:04;2.20;;;2.20;;
24787;SDS011;12883;52.662;5.196;2023-08-17T10:51:31;2.58;;;2.58;;
24787;SDS011;12883;52.662;5.196;2023-08-17T10:54:06;1.90;;;1.90;;
24787;SDS011;12883;52.662;5.196;2023-08-17T10:56:32;2.05;;;2.05;;
24787;SDS011;12883;52.662;5.196;2023-08-17T10:59:01;2.08;;;2.08;;
24787;SDS011;12883;52.662;5.196;2023-08-17T11:01:36;2.03;;;2.03;;
24787;SDS011;12883;52.662;5.196;2023-08-17T11:04:12;2.17;;;2.17;;
24787;SDS011;12883;52.662;5.196;2023-08-17T11:06:41;2.63;;;2.63;;
24787;SDS011;12883;52.662;5.196;2023-08-17T11:09:07;1.70;;;1.70;;
24787;SDS011;12883;52.662;5.196;2023-08-17T11:11:33;2.05;;;2.05;;
24787;SDS011;12883;52.662;5.196;2023-08-17T11:13:59;2.28;;;2.28;;
24787;SDS011;12883;52.662;5.196;2023-08-17T11:16:24;2.10;;;2.10;;
24787;SDS011;12883;52.662;5.196;2023-08-17T11:18:50;2.63;;;2.63;;
24787;SDS011;12883;52.662;5.196;2023-08-17T11:21:16;2.05;;;2.05;;
24787;SDS011;12883;52.662;5.196;2023-08-17T11:23:42;2.35;;;2.35;;
24787;SDS011;12883;52.662;5.196;2023-08-17T11:26:08;1.95;;;1.95;;
24787;SDS011;12883;52.662;5.196;2023-08-17T11:28:34;2.03;;;2.03;;
24787;SDS011;12883;52.662;5.196;2023-08-17T11:31:06;2.33;;;2.33;;
24787;SDS011;12883;52.662;5.196;2023-08-17T11:33:33;1.92;;;1.92;;
24787;SDS011;12883;52.662;5.196;2023-08-17T11:36:00;1.90;;;1.90;;
24787;SDS011;12883;52.662;5.196;2023-08-17T11:38:29;1.67;;;1.67;;
24787;SDS011;12883;52.662;5.196;2023-08-17T11:40:55;1.73;;;1.73;;
24787;SDS011;12883;52.662;5.196;2023-08-17T11:43:23;1.73;;;1.73;;
24787;SDS011;12883;52.662;5.196;2023-08-17T11:45:48;2.55;;;2.55;;
24787;SDS011;12883;52.662;5.196;2023-08-17T11:48:14;1.75;;;1.75;;
24787;SDS011;12883;52.662;5.196;2023-08-17T11:50:42;2.13;;;2.13;;
24787;SDS011;12883;52.662;5.196;2023-08-17T11:53:07;1.60;;;1.60;;
24787;SDS011;12883;52.662;5.196;2023-08-17T11:55:33;2.00;;;2.00;;
24787;SDS011;12883;52.662;5.196;2023-08-17T11:57:58;2.10;;;2.10;;
24787;SDS011;12883;52.662;5.196;2023-08-17T12:00:24;2.58;;;2.58;;
24787;SDS011;12883;52.662;5.196;2023-08-17T12:02:51;1.83;;;1.83;;
24787;SDS011;12883;52.662;5.196;2023-08-17T12:05:24;2.25;;;2.25;;
24787;SDS011;12883;52.662;5.196;2023-08-17T12:07:54;2.03;;;2.03;;
24787;SDS011;12883;52.662;5.196;2023-08-17T12:10:20;2.25;;;2.25;;
24787;SDS011;12883;52.662;5.196;2023-08-17T12:12:47;2.50;;;2.50;;
24787;SDS011;12883;52.662;5.196;2023-08-17T12:15:13;2.60;;;2.60;;
24787;SDS011;12883;52.662;5.196;2023-08-17T12:17:48;2.42;;;2.42;;
24787;SDS011;12883;52.662;5.196;2023-08-17T12:20:17;2.22;;;2.22;;
24787;SDS011;12883;52.662;5.196;2023-08-17T12:22:44;1.85;;;1.85;;
24787;SDS011;12883;52.662;5.196;2023-08-17T12:25:10;2.55;;;2.55;;
24787;SDS011;12883;52.662;5.196;2023-08-17T12:27:36;1.80;;;1.80;;
24787;SDS011;12883;52.662;5.196;2023-08-17T12:30:02;1.63;;;1.63;;
24787;SDS011;12883;52.662;5.196;2023-08-17T12:32:27;1.95;;;1.95;;
24787;SDS011;12883;52.662;5.196;2023-08-17T12:34:53;1.75;;;1.75;;
24787;SDS011;12883;52.662;5.196;2023-08-17T12:37:19;2.00;;;2.00;;
24787;SDS011;12883;52.662;5.196;2023-08-17T12:39:45;1.75;;;1.75;;
24787;SDS011;12883;52.662;5.196;2023-08-17T12:42:12;2.45;;;2.45;;
24787;SDS011;12883;52.662;5.196;2023-08-17T12:44:38;1.83;;;1.83;;
24787;SDS011;12883;52.662;5.196;2023-08-17T12:47:04;2.00;;;2.00;;
24787;SDS011;12883;52.662;5.196;2023-08-17T12:49:29;1.73;;;1.73;;
24787;SDS011;12883;52.662;5.196;2023-08-17T12:51:55;2.13;;;2.13;;
24787;SDS011;12883;52.662;5.196;2023-08-17T12:54:20;1.88;;;1.88;;
24787;SDS011;12883;52.662;5.196;2023-08-17T12:56:45;2.40;;;2.40;;
24787;SDS011;12883;52.662;5.196;2023-08-17T12:59:11;2.03;;;2.03;;
24787;SDS011;12883;52.662;5.196;2023-08-17T13:01:36;1.75;;;1.75;;
24787;SDS011;12883;52.662;5.196;2023-08-17T13:04:01;2.08;;;2.08;;
24787;SDS011;12883;52.662;5.196;2023-08-17T13:06:27;2.22;;;2.22;;
24787;SDS011;12883;52.662;5.196;2023-08-17T13:08:52;2.30;;;2.30;;
24787;SDS011;12883;52.662;5.196;2023-08-17T13:11:18;2.30;;;2.30;;
24787;SDS011;12883;52.662;5.196;2023-08-17T13:13:43;2.80;;;2.80;;
24787;SDS011;12883;52.662;5.196;2023-08-17T13:16:08;2.22;;;2.22;;
24787;SDS011;12883;52.662;5.196;2023-08-17T13:18:35;2.30;;;2.30;;
24787;SDS011;12883;52.662;5.196;2023-08-17T13:21:01;2.13;;;2.13;;
24787;SDS011;12883;52.662;5.196;2023-08-17T13:23:26;2.45;;;2.45;;
24787;SDS011;12883;52.662;5.196;2023-08-17T13:25:52;2.38;;;2.38;;
24787;SDS011;12883;52.662;5.196;2023-08-17T13:28:17;2.60;;;2.60;;
24787;SDS011;12883;52.662;5.196;2023-08-17T13:30:42;2.90;;;2.90;;
24787;SDS011;12883;52.662;5.196;2023-08-17T13:33:08;2.42;;;2.42;;
24787;SDS011;12883;52.662;5.196;2023-08-17T13:35:33;2.38;;;2.38;;
24787;SDS011;12883;52.662;5.196;2023-08-17T13:37:59;2.55;;;2.55;;
24787;SDS011;12883;52.662;5.196;2023-08-17T13:40:24;2.22;;;2.22;;
24787;SDS011;12883;52.662;5.196;2023-08-17T13:42:50;2.42;;;2.42;;
24787;SDS011;12883;52.662;5.196;2023-08-17T13:45:15;2.13;;;2.13;;
24787;SDS011;12883;52.662;5.196;2023-08-17T13:47:41;2.03;;;2.03;;
24787;SDS011;12883;52.662;5.196;2023-08-17T13:50:06;2.10;;;2.10;;
24787;SDS011;12883;52.662;5.196;2023-08-17T13:52:32;1.83;;;1.83;;
24787;SDS011;12883;52.662;5.196;2023-08-17T13:54:58;2.65;;;2.65;;
24787;SDS011;12883;52.662;5.196;2023-08-17T13:57:23;1.75;;;1.75;;
24787;SDS011;12883;52.662;5.196;2023-08-17T13:59:49;1.83;;;1.83;;
24787;SDS011;12883;52.662;5.196;2023-08-17T14:02:14;2.05;;;2.05;;
24787;SDS011;12883;52.662;5.196;2023-08-17T14:04:39;2.00;;;2.00;;
24787;SDS011;12883;52.662;5.196;2023-08-17T14:07:05;2.13;;;2.13;;
24787;SDS011;12883;52.662;5.196;2023-08-17T14:09:30;2.25;;;2.25;;
24787;SDS011;12883;52.662;5.196;2023-08-17T14:11:55;1.92;;;1.92;;
24787;SDS011;12883;52.662;5.196;2023-08-17T14:14:20;2.65;;;2.65;;
24787;SDS011;12883;52.662;5.196;2023-08-17T14:16:46;2.28;;;2.28;;
24787;SDS011;12883;52.662;5.196;2023-08-17T14:19:11;1.73;;;1.73;;
24787;SDS011;12883;52.662;5.196;2023-08-17T14:21:36;2.10;;;2.10;;
24787;SDS011;12883;52.662;5.196;2023-08-17T14:24:02;1.77;;;1.77;;
24787;SDS011;12883;52.662;5.196;2023-08-17T14:26:27;2.13;;;2.13;;
24787;SDS011;12883;52.662;5.196;2023-08-17T14:28:53;2.00;;;2.00;;
24787;SDS011;12883;52.662;5.196;2023-08-17T14:31:18;2.05;;;2.05;;
24787;SDS011;12883;52.662;5.196;2023-08-17T14:33:44;2.20;;;2.20;;
24787;SDS011;12883;52.662;5.196;2023-08-17T14:36:14;2.00;;;2.00;;
24787;SDS011;12883;52.662;5.196;2023-08-17T14:38:40;3.05;;;3.05;;
24787;SDS011;12883;52.662;5.196;2023-08-17T14:41:05;2.90;;;2.90;;
24787;SDS011;12883;52.662;5.196;2023-08-17T14:43:32;1.83;;;1.83;;
24787;SDS011;12883;52.662;5.196;2023-08-17T14:45:57;2.50;;;2.50;;
24787;SDS011;12883;52.662;5.196;2023-08-17T14:48:23;2.33;;;2.33;;
24787;SDS011;12883;52.662;5.196;2023-08-17T14:50:48;2.55;;;2.55;;
24787;SDS011;12883;52.662;5.196;2023-08-17T14:53:13;2.40;;;2.40;;